Terminal Aerodrome Forecast
Issued by NWS Paducah, KY

Home | Current Version | Previous Version | Text Only | Print | Product List | Glossary On
Versions: 1 2 3 4 5 6 7 8 9 10 11 12 13 14 15 16 17 18
000
FTUS43 KPAH 192338
TAFPAH
TAF
KPAH 192338Z 2000/2024 03009KT P6SM FEW250
     FM200100 03003KT P6SM SCT250
     FM201500 09006KT P6SM -SHRA SCT060 BKN150
     FM201900 03008KT 6SM -SHRA BR SCT010 BKN025=

USA.gov is the U.S. government's official web portal to all federal, state and local government web resources and services.